This is the latest recevied weather packets stored in our database for station/object ON7SD-5. If no packets are shown the sender has not sent any weather packets the latest 1 day(s).
| Time | Temp. | Humidity | Pressure | Rain* | Wind** | Luminosity | Snow |
|---|---|---|---|---|---|---|---|
| 1778098024 | 11.11° C | 81% | 1011.1 hPa | 0 mm | - | 0 W/m² | - |
| 1778097724 | 11.67° C | 80% | 1011.1 hPa | 0 mm | - | 0 W/m² | - |
| 1778097424 | 11.67° C | 80% | 1011 hPa | 0 mm | - | 0 W/m² | - |
| 1778097124 | 11.67° C | 80% | 1011 hPa | 0 mm | - | 0 W/m² | - |
| 1778096824 | 11.67° C | 79% | 1010.9 hPa | 0 mm | - | 0 W/m² | - |
| 1778096224 | 11.67° C | 78% | 1010.8 hPa | 0 mm | - | 0 W/m² | - |
| 1778095924 | 11.67° C | 78% | 1010.8 hPa | 0 mm | - | 0 W/m² | - |
| 1778095624 | 12.22° C | 77% | 1010.7 hPa | 0 mm | - | 0 W/m² | - |
| 1778095024 | 12.22° C | 76% | 1010.6 hPa | 0 mm | - | 5 W/m² | - |
| 1778094424 | 12.22° C | 75% | 1010.5 hPa | 0 mm | - | 12 W/m² | - |
| 1778093824 | 12.22° C | 73% | 1010.5 hPa | 0 mm | - | 26 W/m² | - |
| 1778093224 | 12.78° C | 72% | 1010.3 hPa | 0 mm | - | 37 W/m² | - |
| 1778092924 | 12.78° C | 71% | 1010.4 hPa | 0 mm | - | 40 W/m² | - |
| 1778092624 | 13.33° C | 71% | 1010.3 hPa | 0 mm | - | 47 W/m² | - |
| 1778089924 | 13.89° C | 68% | 1009.8 hPa | 0 mm | - | 105 W/m² | - |
| 1778088724 | 14.44° C | 67% | 1009.5 hPa | 0 mm | - | 204 W/m² | - |
| 1778087824 | 14.44° C | 65% | 1009.4 hPa | 0 mm | - | 250 W/m² | - |
| 1778063525 | 12.22° C | 81% | 1008.9 hPa | 0 mm | - | 287 W/m² | - |
| 1778062925 | 11.67° C | 82% | 1009 hPa | 0 mm | - | 271 W/m² | - |
| 1778062625 | 11.67° C | 82% | 1009 hPa | 0 mm | - | 251 W/m² | - |
| 1778062025 | 11.11° C | 84% | 1009 hPa | 0 mm | - | 214 W/m² | - |
| 1778061727 | 11.11° C | 83% | 1009 hPa | 0 mm | - | 100 W/m² | - |
| 1778061427 | 11.11° C | 82% | 1009 hPa | 0 mm | - | 91 W/m² | - |
| 1778061125 | 11.11° C | 82% | 1009 hPa | 0 mm | - | 79 W/m² | - |
| 1778060825 | 11.11° C | 82% | 1008.9 hPa | 0 mm | - | 91 W/m² | - |
* Rain latest hour (hover to see other rain measurements)
** Current wind speed in m/s (hover to see current wind gust speed)